Time;durP1;ratioP1;P1;durP2;ratioP2;P2;SDS_P1;SDS_P2;PMS_P1;PMS_P2;Temp;Humidity;BMP_temperature;BMP_pressure;BME280_temperature;BME280_humidity;BME280_pressure;Samples;Min_cycle;Max_cycle;Signal;HPM_P1;HPM_P2
2021/01/23 00:00:31;;;;;;;23.13;15.80;;;;;;;9.48;48.08;99338.97;5013968;28;20033;-76
2021/01/23 00:02:56;;;;;;;26.17;16.37;;;;;;;9.47;48.28;99339.31;5015637;28;20026;-85
2021/01/23 00:05:22;;;;;;;22.70;15.13;;;;;;;9.47;47.98;99336.59;5014845;28;20033;-75
2021/01/23 00:07:47;;;;;;;19.20;13.53;;;;;;;9.47;48.00;99337.38;5015100;28;20033;-84
2021/01/23 00:10:13;;;;;;;19.80;12.57;;;;;;;9.42;48.10;99341.13;5030492;28;20029;-76
2021/01/23 00:12:39;;;;;;;16.40;11.70;;;;;;;9.51;47.70;99337.47;5013778;28;20088;-76
2021/01/23 00:15:05;;;;;;;15.37;10.00;;;;;;;9.42;48.00;99343.84;5014904;28;20033;-83
2021/01/23 00:17:31;;;;;;;17.33;10.97;;;;;;;9.29;48.52;99344.16;5030241;28;20484;-76
2021/01/23 00:19:56;;;;;;;12.63;9.47;;;;;;;9.34;48.26;99342.00;5014850;28;20040;-85
2021/01/23 00:22:22;;;;;;;15.70;11.23;;;;;;;9.39;48.14;99344.53;5030845;28;20124;-79
2021/01/23 00:24:48;;;;;;;17.10;10.52;;;;;;;9.39;47.84;99355.44;5034321;28;20037;-82
2021/01/23 00:27:13;;;;;;;17.87;11.73;;;;;;;9.62;47.15;99355.00;5034352;28;20033;-75
2021/01/23 00:29:39;;;;;;;20.10;13.57;;;;;;;9.44;47.55;99359.84;5034508;28;20025;-76
2021/01/23 00:32:05;;;;;;;22.00;15.43;;;;;;;9.44;47.77;99363.38;5034305;28;20619;-75
2021/01/23 00:34:30;;;;;;;25.23;17.57;;;;;;;9.52;47.29;99352.69;5034189;28;20040;-75
2021/01/23 00:36:56;;;;;;;28.23;18.67;;;;;;;9.35;48.08;99349.06;5016555;28;20396;-86
2021/01/23 00:39:22;;;;;;;28.47;18.43;;;;;;;9.43;47.49;99347.34;5034009;28;20387;-75
2021/01/23 00:41:48;;;;;;;28.53;18.97;;;;;;;9.17;48.20;99344.94;5033914;28;20103;-75
2021/01/23 00:44:13;;;;;;;20.60;15.73;;;;;;;9.35;47.55;99338.16;5034099;28;20029;-85
2021/01/23 00:46:39;;;;;;;24.13;17.17;;;;;;;9.32;47.57;99327.94;5034199;28;20061;-75
2021/01/23 00:49:04;;;;;;;25.23;15.33;;;;;;;9.50;47.19;99336.69;5034096;28;20036;-85
2021/01/23 00:51:30;;;;;;;21.33;14.30;;;;;;;9.48;46.91;99336.25;5032817;28;20029;-75
2021/01/23 00:53:55;;;;;;;22.23;14.90;;;;;;;9.54;46.60;99337.63;5016037;28;20029;-76
2021/01/23 00:56:21;;;;;;;22.87;15.90;;;;;;;9.51;46.88;99332.03;5033974;28;20061;-76
2021/01/23 00:58:46;;;;;;;23.47;16.23;;;;;;;9.40;46.97;99339.88;5033741;28;20107;-76
2021/01/23 01:01:13;;;;;;;25.37;16.60;;;;;;;9.41;47.01;99344.97;5032337;28;20388;-85
2021/01/23 01:03:39;;;;;;;27.03;15.20;;;;;;;9.41;46.94;99334.06;5032252;28;20116;-75
2021/01/23 01:06:05;;;;;;;22.80;15.27;;;;;;;9.59;46.26;99326.47;5033420;28;20089;-75
2021/01/23 01:08:31;;;;;;;21.93;15.03;;;;;;;9.45;46.70;99326.03;5032569;28;20120;-76
2021/01/23 01:10:56;;;;;;;21.27;14.97;;;;;;;9.45;46.70;99334.22;5033797;28;20109;-76
2021/01/23 01:13:22;;;;;;;19.83;14.70;;;;;;;9.47;46.71;99336.59;5033538;28;20067;-76
2021/01/23 01:15:51;;;;;;;19.67;13.23;;;;;;;9.34;46.93;99333.84;5031938;28;20128;-82
2021/01/23 01:18:17;;;;;;;18.13;12.63;;;;;;;9.27;46.99;99330.06;5015746;28;20538;-75
2021/01/23 01:20:43;;;;;;;20.10;13.37;;;;;;;9.23;46.98;99335.41;5033242;28;20037;-75
2021/01/23 01:23:08;;;;;;;18.67;12.40;;;;;;;9.00;47.85;99329.56;5033487;28;20029;-76
2021/01/23 01:25:34;;;;;;;19.83;12.57;;;;;;;9.10;47.13;99337.31;5033367;28;20029;-85
2021/01/23 01:28:00;;;;;;;19.17;13.13;;;;;;;9.22;47.15;99333.84;5033524;28;20029;-83
2021/01/23 01:30:26;;;;;;;20.20;12.67;;;;;;;8.97;47.62;99343.84;5033524;28;20443;-76
2021/01/23 01:32:52;;;;;;;20.57;13.50;;;;;;;9.22;46.82;99331.09;5033529;28;20068;-75
2021/01/23 01:35:17;;;;;;;20.23;13.50;;;;;;;9.26;46.84;99331.22;5033497;28;20062;-76
2021/01/23 01:37:44;;;;;;;22.30;14.47;;;;;;;9.29;46.80;99331.31;5032188;28;20036;-77
2021/01/23 01:40:10;;;;;;;22.10;14.20;;;;;;;9.22;47.16;99331.09;5033481;28;20025;-85
2021/01/23 01:42:36;;;;;;;28.03;13.97;;;;;;;9.33;46.94;99334.97;5032969;28;20076;-77
2021/01/23 01:45:02;;;;;;;23.00;14.20;;;;;;;9.26;47.20;99332.00;5033291;28;20061;-76
2021/01/23 01:47:28;;;;;;;19.73;13.60;;;;;;;9.38;46.83;99329.31;5015459;28;20167;-85
2021/01/23 01:49:57;;;;;;;23.80;13.30;;;;;;;9.23;46.75;99340.88;5031818;28;20056;-77
2021/01/23 01:52:22;;;;;;;21.33;12.57;;;;;;;9.02;47.40;99346.38;5032902;28;20029;-77
2021/01/23 01:54:50;;;;;;;17.47;12.37;;;;;;;9.10;47.35;99344.69;5032091;28;20034;-84
2021/01/23 01:57:21;;;;;;;19.67;12.70;;;;;;;8.98;47.71;99342.72;5033046;28;20473;-85
2021/01/23 01:59:48;;;;;;;19.03;13.17;;;;;;;9.16;46.86;99338.69;5033099;28;20026;-86
2021/01/23 02:02:32;;;;;;;16.57;11.50;;;;;;;9.16;46.81;99329.72;5032989;28;20033;-85
2021/01/23 02:05:24;;;;;;;19.20;12.30;;;;;;;9.17;46.76;99328.59;5031862;28;20033;-80
2021/01/23 02:08:27;;;;;;;15.20;10.50;;;;;;;9.02;47.20;99343.66;5032851;28;20109;-76
2021/01/23 02:11:03;;;;;;;16.77;11.33;;;;;;;8.89;47.40;99342.81;5033144;28;20507;-77
2021/01/23 02:13:31;;;;;;;20.63;11.93;;;;;;;8.91;47.46;99337.00;5033047;28;20079;-79
2021/01/23 02:16:03;;;;;;;17.57;11.43;;;;;;;9.11;46.69;99336.19;5032674;28;20468;-77
2021/01/23 02:18:38;;;;;;;15.93;11.10;;;;;;;9.10;47.11;99331.06;5032917;28;20032;-77
2021/01/23 02:21:41;;;;;;;18.40;11.57;;;;;;;9.17;46.48;99323.13;5032579;28;20061;-86
2021/01/23 02:24:07;;;;;;;14.23;10.33;;;;;;;8.97;47.61;99332.16;5031699;28;20472;-77
2021/01/23 02:26:48;;;;;;;18.60;11.37;;;;;;;8.79;47.65;99329.63;5032572;28;20388;-80
2021/01/23 02:29:20;;;;;;;15.53;9.57;;;;;;;8.82;47.43;99330.84;5036993;28;20476;-76
2021/01/23 02:31:56;;;;;;;16.33;9.57;;;;;;;8.94;47.27;99335.56;5036996;28;20416;-76
2021/01/23 02:34:25;;;;;;;15.27;10.90;;;;;;;8.95;46.43;99337.94;5036736;28;20112;-78
2021/01/23 02:36:53;;;;;;;17.20;10.70;;;;;;;8.92;47.17;99346.81;5036842;28;20052;-84
2021/01/23 02:39:20;;;;;;;16.13;10.07;;;;;;;8.86;47.24;99351.66;5019078;28;20033;-78
2021/01/23 02:41:46;;;;;;;16.30;9.77;;;;;;;8.72;47.75;99364.75;5035409;28;20054;-85
2021/01/23 02:44:13;;;;;;;16.20;10.80;;;;;;;8.66;47.40;99360.63;5036468;28;20028;-77
2021/01/23 02:46:39;;;;;;;14.43;9.83;;;;;;;8.70;47.44;99364.31;5036643;28;20041;-77
2021/01/23 02:49:05;;;;;;;17.97;9.80;;;;;;;8.89;47.00;99359.16;5036414;28;20029;-76
2021/01/23 02:51:49;;;;;;;14.67;10.10;;;;;;;8.69;47.60;99370.88;5018655;28;20040;-84
2021/01/23 02:54:31;;;;;;;16.37;11.07;;;;;;;8.80;47.34;99360.38;5036338;28;20056;-77
2021/01/23 02:57:00;;;;;;;14.50;9.83;;;;;;;8.77;47.25;99363.78;5036329;28;20391;-77
2021/01/23 02:59:27;;;;;;;16.50;9.67;;;;;;;8.72;47.35;99358.53;5018213;28;20124;-86
2021/01/23 03:01:53;;;;;;;12.33;8.90;;;;;;;8.83;47.17;99365.94;5036129;28;20274;-77
2021/01/23 03:04:20;;;;;;;19.00;10.27;;;;;;;8.71;47.40;99376.78;5018471;28;20059;-77
2021/01/23 03:06:47;;;;;;;18.20;11.23;;;;;;;8.73;47.26;99379.16;5036328;28;20022;-76
2021/01/23 03:09:23;;;;;;;11.93;9.37;;;;;;;8.60;47.26;99383.75;5035905;28;20361;-78
2021/01/23 03:11:49;;;;;;;13.57;9.20;;;;;;;8.69;47.25;99387.22;5035028;28;20026;-77
2021/01/23 03:14:16;;;;;;;12.33;8.80;;;;;;;8.79;46.87;99392.25;5036015;28;20032;-85
2021/01/23 03:16:46;;;;;;;13.70;8.23;;;;;;;8.63;47.22;99388.56;5035731;28;20032;-83
2021/01/23 03:19:12;;;;;;;12.23;8.63;;;;;;;8.78;47.09;99382.50;5018079;28;20056;-77
2021/01/23 03:21:38;;;;;;;9.57;7.77;;;;;;;8.79;46.71;99386.00;5014215;28;20054;-77
2021/01/23 03:24:04;;;;;;;11.43;7.93;;;;;;;8.78;47.11;99382.50;5014265;28;20057;-86
2021/01/23 03:26:29;;;;;;;12.60;7.27;;;;;;;8.78;46.98;99385.22;5013339;28;20121;-86
2021/01/23 03:28:55;;;;;;;12.60;7.40;;;;;;;8.70;47.34;99398.91;5015651;28;20105;-78
2021/01/23 03:31:20;;;;;;;12.03;6.77;;;;;;;8.68;47.19;99392.97;5030926;28;20144;-76
2021/01/23 03:33:46;;;;;;;11.40;7.47;;;;;;;8.72;46.96;99388.47;5031368;28;20018;-86
2021/01/23 03:36:11;;;;;;;11.80;7.03;;;;;;;8.78;46.83;99389.88;5030809;28;20026;-76
2021/01/23 03:38:37;;;;;;;12.57;7.80;;;;;;;8.78;46.94;99393.38;5013509;28;20022;-76
2021/01/23 03:41:03;;;;;;;10.00;7.27;;;;;;;8.60;47.38;99389.19;5015421;28;20030;-78
2021/01/23 03:43:28;;;;;;;21.23;9.10;;;;;;;8.34;47.92;99392.88;5031150;28;20072;-77
2021/01/23 03:45:54;;;;;;;10.23;6.97;;;;;;;8.53;47.53;99391.66;5015142;28;20420;-85
2021/01/23 03:48:19;;;;;;;13.27;6.90;;;;;;;8.60;47.31;99397.38;5031084;28;20026;-76
2021/01/23 03:50:45;;;;;;;9.70;6.60;;;;;;;8.73;46.88;99395.50;5015572;28;20108;-77
2021/01/23 03:53:10;;;;;;;8.40;5.53;;;;;;;8.42;47.97;99390.47;5015453;28;20045;-76
2021/01/23 03:55:37;;;;;;;9.80;6.83;;;;;;;8.69;47.18;99389.94;5015005;28;20026;-78
2021/01/23 03:58:03;;;;;;;11.53;6.57;;;;;;;8.73;46.81;99390.84;5015360;28;20022;-76
2021/01/23 04:00:28;;;;;;;9.33;6.20;;;;;;;8.70;47.17;99394.25;5030631;28;20035;-84
2021/01/23 04:02:54;;;;;;;9.57;6.03;;;;;;;8.71;46.88;99395.84;5030615;28;20034;-77
2021/01/23 04:05:19;;;;;;;10.17;6.40;;;;;;;8.63;46.91;99390.47;5016748;28;20129;-77
2021/01/23 04:07:45;;;;;;;11.90;5.70;;;;;;;8.77;46.41;99386.34;4994212;28;20030;-76
2021/01/23 04:10:11;;;;;;;7.50;5.10;;;;;;;8.72;46.71;99386.53;4994585;28;20173;-77
2021/01/23 04:12:37;;;;;;;8.17;5.27;;;;;;;8.63;46.94;99393.19;4995600;28;20624;-76
2021/01/23 04:15:03;;;;;;;8.77;5.30;;;;;;;8.69;46.55;99395.41;4995777;28;20038;-83
2021/01/23 04:17:29;;;;;;;9.27;5.33;;;;;;;8.60;46.83;99391.91;4995372;28;20031;-77
2021/01/23 04:19:54;;;;;;;10.00;4.80;;;;;;;8.66;46.61;99406.94;4995456;28;20385;-77
2021/01/23 04:22:20;;;;;;;7.67;5.03;;;;;;;8.47;46.85;99412.06;5010981;28;20523;-77
2021/01/23 04:24:48;;;;;;;6.53;4.47;;;;;;;8.48;46.89;99400.84;4997218;28;20037;-85
2021/01/23 04:27:13;;;;;;;7.50;4.90;;;;;;;8.38;46.65;99411.28;5014850;28;20057;-81
2021/01/23 04:29:39;;;;;;;7.90;4.87;;;;;;;8.45;47.01;99397.97;5014999;28;20057;-76
2021/01/23 04:32:05;;;;;;;8.40;4.90;;;;;;;8.53;46.35;99394.38;5014688;28;20041;-77
2021/01/23 04:34:30;;;;;;;8.03;4.23;;;;;;;8.67;46.21;99389.47;4997252;28;20037;-76
2021/01/23 04:36:56;;;;;;;9.13;4.53;;;;;;;8.59;46.12;99393.84;4997262;28;20032;-83
2021/01/23 04:39:21;;;;;;;6.33;4.07;;;;;;;8.60;46.02;99400.88;5014691;28;20045;-84
2021/01/23 04:41:47;;;;;;;7.90;4.53;;;;;;;8.57;46.16;99395.31;5014556;28;20087;-85
2021/01/23 04:44:13;;;;;;;6.23;4.27;;;;;;;8.60;45.89;99389.19;4997030;28;20026;-76
2021/01/23 04:46:38;;;;;;;7.63;3.70;;;;;;;8.70;45.73;99390.75;5014572;28;20037;-77
2021/01/23 04:49:04;;;;;;;7.37;4.97;;;;;;;8.65;46.17;99399.91;5014907;28;20018;-77
2021/01/23 04:51:30;;;;;;;5.47;3.97;;;;;;;8.64;45.73;99405.69;5013261;28;20037;-86
2021/01/23 04:53:56;;;;;;;5.30;4.03;;;;;;;8.57;46.26;99406.22;5014238;28;20068;-76
2021/01/23 04:56:21;;;;;;;6.73;4.47;;;;;;;8.46;45.93;99402.28;5014334;28;20026;-86
2021/01/23 04:58:47;;;;;;;5.77;3.83;;;;;;;8.29;46.73;99403.94;5014337;28;20025;-77
2021/01/23 05:01:15;;;;;;;4.60;3.37;;;;;;;8.34;46.16;99401.06;5014168;28;20420;-76
2021/01/23 05:04:03;;;;;;;6.10;3.50;;;;;;;8.27;46.23;99408.13;4996624;28;20042;-77
2021/01/23 05:06:29;;;;;;;7.27;4.40;;;;;;;8.30;46.36;99394.66;4996376;28;20061;-84
2021/01/23 05:08:58;;;;;;;6.77;4.43;;;;;;;8.31;46.27;99398.19;5013627;28;20052;-77
2021/01/23 05:11:45;;;;;;;7.03;4.23;;;;;;;8.14;46.30;99387.41;5013967;28;20556;-76
2021/01/23 05:14:14;;;;;;;8.07;4.77;;;;;;;8.13;46.71;99388.53;5012863;28;20468;-82
2021/01/23 05:16:40;;;;;;;7.77;4.50;;;;;;;8.13;47.00;99386.59;5013804;28;20049;-77
2021/01/23 05:19:09;;;;;;;7.13;4.73;;;;;;;7.96;46.67;99387.50;5013802;28;20033;-86
2021/01/23 05:21:35;;;;;;;10.43;5.10;;;;;;;7.88;47.09;99393.00;5013566;28;20117;-76
2021/01/23 05:24:21;;;;;;;7.50;5.07;;;;;;;7.78;47.66;99397.69;5013690;28;20036;-77
2021/01/23 05:26:55;;;;;;;8.80;5.30;;;;;;;7.84;47.55;99401.00;5013384;28;20439;-76
2021/01/23 05:29:22;;;;;;;10.00;5.63;;;;;;;7.34;48.86;99403.59;5013691;28;20029;-86
2021/01/23 05:32:17;;;;;;;9.10;6.13;;;;;;;7.66;47.94;99400.28;4996071;28;20544;-76
2021/01/23 05:34:42;;;;;;;11.50;7.03;;;;;;;7.84;47.31;99402.91;5013782;28;20029;-77
2021/01/23 05:37:08;;;;;;;12.33;6.63;;;;;;;7.79;47.68;99403.91;4995960;28;20033;-79
2021/01/23 05:39:50;;;;;;;13.43;8.13;;;;;;;7.60;47.75;99398.84;4995975;28;20034;-86
2021/01/23 05:42:18;;;;;;;12.00;7.27;;;;;;;7.70;48.00;99406.66;5013401;28;20026;-77
2021/01/23 05:45:13;;;;;;;13.17;7.13;;;;;;;7.65;47.92;99401.41;5013390;28;20057;-76
2021/01/23 05:47:40;;;;;;;12.87;8.63;;;;;;;7.64;47.92;99396.31;4979671;28;20523;-77
2021/01/23 05:50:08;;;;;;;16.53;11.17;;;;;;;7.48;48.34;99402.28;5013507;28;20053;-85
2021/01/23 05:52:34;;;;;;;19.40;12.47;;;;;;;7.40;48.76;99408.50;5013528;28;20369;-76
2021/01/23 05:55:01;;;;;;;26.07;12.20;;;;;;;7.62;48.05;99412.13;5013162;28;20041;-85
2021/01/23 05:57:28;;;;;;;23.83;11.47;;;;;;;7.42;48.72;99416.34;4995689;28;20034;-77
2021/01/23 05:59:54;;;;;;;17.60;10.00;;;;;;;7.42;49.08;99410.91;5013044;28;20022;-80
2021/01/23 06:02:22;;;;;;;15.90;9.03;;;;;;;7.49;48.50;99397.63;5012813;28;20030;-77
2021/01/23 06:04:49;;;;;;;14.63;7.90;;;;;;;7.44;48.93;99409.47;5013247;28;20041;-82
2021/01/23 06:07:41;;;;;;;16.10;7.83;;;;;;;7.35;49.02;99418.78;5013129;28;20041;-85
2021/01/23 06:10:22;;;;;;;18.03;6.47;;;;;;;7.61;49.21;99415.97;4989372;28;20074;-80
2021/01/23 06:12:53;;;;;;;7.87;5.33;;;;;;;7.68;48.95;99408.09;5013401;28;20029;-80
2021/01/23 06:15:31;;;;;;;9.07;5.70;;;;;;;7.86;48.61;99411.53;4995579;28;20061;-76
2021/01/23 06:17:58;;;;;;;12.73;6.57;;;;;;;7.98;48.17;99417.09;5011935;28;20515;-79
2021/01/23 06:20:42;;;;;;;12.13;6.50;;;;;;;7.58;49.62;99420.16;4995624;28;20034;-76
2021/01/23 06:23:09;;;;;;;12.50;7.63;;;;;;;7.93;48.46;99422.72;5013315;28;20042;-84
2021/01/23 06:25:50;;;;;;;13.47;6.47;;;;;;;7.55;50.24;99431.66;4979272;28;20068;-77
2021/01/23 06:28:22;;;;;;;11.50;6.70;;;;;;;8.00;48.77;99423.78;5011908;28;20030;-76
2021/01/23 06:30:49;;;;;;;12.23;6.20;;;;;;;7.84;49.27;99425.47;5012886;28;20026;-83
2021/01/23 06:33:24;;;;;;;10.63;5.70;;;;;;;7.93;48.95;99425.44;4995532;28;20469;-77
2021/01/23 06:36:02;;;;;;;8.50;5.00;;;;;;;7.98;49.30;99427.97;5013122;28;20033;-83
2021/01/23 06:38:29;;;;;;;10.10;5.73;;;;;;;8.14;48.86;99425.50;5012814;28;20060;-76
2021/01/23 06:40:54;;;;;;;8.13;4.87;;;;;;;8.23;48.52;99432.47;5012739;28;20361;-76
2021/01/23 06:43:20;;;;;;;7.27;4.83;;;;;;;8.25;48.70;99435.69;4995271;28;20032;-76
2021/01/23 06:45:46;;;;;;;12.60;5.30;;;;;;;7.82;50.01;99440.53;5012980;28;20125;-85
2021/01/23 06:48:12;;;;;;;10.30;6.30;;;;;;;8.34;48.46;99433.72;4995174;28;20357;-77
2021/01/23 06:50:40;;;;;;;10.57;6.13;;;;;;;8.02;49.73;99434.38;5012648;28;20041;-77
2021/01/23 06:53:25;;;;;;;8.63;5.43;;;;;;;8.00;49.35;99434.69;5012649;28;20558;-77
2021/01/23 06:55:53;;;;;;;13.30;7.83;;;;;;;8.39;48.48;99429.22;4979199;28;20125;-77
2021/01/23 06:58:21;;;;;;;20.13;10.10;;;;;;;8.48;48.11;99438.16;5012784;28;20030;-76
2021/01/23 07:00:48;;;;;;;20.67;10.50;;;;;;;8.55;48.38;99441.16;5012486;28;20029;-86
2021/01/23 07:03:15;;;;;;;14.27;8.23;;;;;;;8.81;47.62;99449.13;4994826;28;20026;-77
2021/01/23 07:05:46;;;;;;;11.93;7.47;;;;;;;8.56;48.02;99450.91;5012738;28;20030;-79
2021/01/23 07:08:28;;;;;;;11.63;7.30;;;;;;;8.39;47.69;99459.97;4995256;28;20022;-85
2021/01/23 07:11:12;;;;;;;13.63;7.47;;;;;;;8.67;47.31;99452.09;5012736;28;20020;-77
2021/01/23 07:13:56;;;;;;;11.63;6.20;;;;;;;8.72;47.62;99457.34;5012645;28;20052;-77
2021/01/23 07:16:23;;;;;;;12.30;5.73;;;;;;;8.68;47.47;99453.69;4998897;28;20037;-84
2021/01/23 07:19:08;;;;;;;9.33;5.73;;;;;;;8.61;47.92;99451.50;5015982;28;20032;-78
2021/01/23 07:21:40;;;;;;;12.03;6.33;;;;;;;8.71;47.88;99454.97;4998936;28;20045;-83
2021/01/23 07:24:09;;;;;;;10.03;4.83;;;;;;;8.84;47.41;99453.88;5015980;28;20057;-77
2021/01/23 07:26:35;;;;;;;10.60;5.37;;;;;;;8.53;48.10;99452.34;5015929;28;20062;-85
2021/01/23 07:29:02;;;;;;;6.90;4.50;;;;;;;8.89;47.16;99454.50;5015994;28;20576;-77
2021/01/23 07:31:32;;;;;;;8.77;4.97;;;;;;;8.80;47.25;99467.38;4998452;28;20061;-76
2021/01/23 07:34:00;;;;;;;11.60;6.80;;;;;;;8.78;47.03;99474.31;5015567;28;20029;-80
2021/01/23 07:36:39;;;;;;;8.73;6.80;;;;;;;8.65;47.56;99478.88;5015887;28;20034;-77
2021/01/23 07:39:16;;;;;;;10.27;6.40;;;;;;;8.83;47.15;99485.78;5015746;28;20022;-85
2021/01/23 07:41:55;;;;;;;10.00;5.17;;;;;;;8.79;47.30;99489.50;5015610;28;20026;-78
2021/01/23 07:44:25;;;;;;;8.60;4.45;;;;;;;8.81;47.15;99489.97;4998006;28;20029;-84
2021/01/23 07:46:50;;;;;;;7.78;6.18;;;;;;;8.84;46.96;99487.41;5015654;28;20128;-77
2021/01/23 07:49:22;;;;;;;7.87;4.30;;;;;;;8.74;47.39;99485.03;5015485;28;20105;-85
2021/01/23 07:51:48;;;;;;;9.83;4.87;;;;;;;8.72;46.87;99484.59;4997882;28;20125;-77
2021/01/23 07:54:14;;;;;;;8.40;4.40;;;;;;;8.72;46.79;99490.03;4997781;28;20033;-85
2021/01/23 07:56:57;;;;;;;11.57;4.43;;;;;;;8.40;47.76;99501.59;5015404;28;20104;-77
2021/01/23 07:59:44;;;;;;;8.50;4.50;;;;;;;8.56;47.08;99497.19;5015730;28;20033;-77
2021/01/23 08:02:10;;;;;;;8.07;5.17;;;;;;;8.36;47.17;99506.09;5015182;28;20032;-77
2021/01/23 08:04:37;;;;;;;11.30;5.10;;;;;;;8.31;47.25;99510.59;5015342;28;20451;-78
2021/01/23 08:07:24;;;;;;;9.80;5.07;;;;;;;8.15;47.58;99504.06;5015320;28;20037;-77
2021/01/23 08:10:10;;;;;;;10.83;6.33;;;;;;;8.30;47.28;99500.78;5015282;28;20084;-76
2021/01/23 08:12:37;;;;;;;13.50;8.00;;;;;;;8.23;47.52;99510.59;4997339;28;20153;-84
2021/01/23 08:15:05;;;;;;;11.70;7.60;;;;;;;8.32;47.22;99503.22;5015203;28;20235;-78
2021/01/23 08:17:45;;;;;;;14.33;8.73;;;;;;;8.28;47.20;99507.69;4997237;28;20057;-77
2021/01/23 08:20:28;;;;;;;19.90;8.93;;;;;;;8.36;47.18;99519.72;4997599;28;20026;-77
2021/01/23 08:23:03;;;;;;;18.07;10.27;;;;;;;8.38;46.92;99509.28;4974908;28;20405;-77
2021/01/23 08:25:49;;;;;;;14.93;9.70;;;;;;;8.24;47.15;99521.19;4975682;28;20389;-77
2021/01/23 08:28:17;;;;;;;18.03;9.70;;;;;;;8.33;47.14;99523.84;4975853;28;20034;-78
2021/01/23 08:30:43;;;;;;;17.40;11.50;;;;;;;8.63;46.17;99515.72;4974804;28;20030;-85
2021/01/23 08:33:11;;;;;;;18.33;11.10;;;;;;;8.66;45.87;99537.66;4976128;28;20413;-86
2021/01/23 08:35:41;;;;;;;14.10;9.23;;;;;;;8.57;46.11;99532.25;4974499;28;20023;-84
2021/01/23 08:38:11;;;;;;;16.70;9.33;;;;;;;8.61;46.20;99524.22;4974552;28;20026;-78
2021/01/23 08:40:38;;;;;;;12.85;7.90;;;;;;;8.40;46.52;99518.72;4974453;28;20129;-77
2021/01/23 08:43:04;;;;;;;9.70;6.20;;;;;;;8.66;45.98;99512.34;4990448;28;20054;-77
2021/01/23 08:45:30;;;;;;;11.70;5.87;;;;;;;8.51;46.30;99508.25;4981424;28;20535;-81
2021/01/23 08:47:56;;;;;;;15.70;13.30;;;;;;;8.56;46.57;99505.34;4993589;28;20030;-85
2021/01/23 08:50:21;;;;;;;10.50;8.07;;;;;;;8.75;46.00;99507.63;4994404;28;20436;-76
2021/01/23 08:52:47;;;;;;;14.10;5.60;;;;;;;8.77;45.94;99492.56;4993356;28;20038;-88
2021/01/23 08:55:12;;;;;;;12.43;6.97;;;;;;;8.61;46.35;99497.81;5009368;28;20018;-77
2021/01/23 08:57:38;;;;;;;17.07;6.17;;;;;;;8.45;46.88;99498.69;4994411;28;20515;-77
2021/01/23 09:00:09;;;;;;;12.43;6.00;;;;;;;8.40;46.80;99507.84;4992940;28;20050;-75
2021/01/23 09:02:35;;;;;;;13.00;7.80;;;;;;;8.17;47.22;99496.41;4994134;28;20428;-76
2021/01/23 09:05:00;;;;;;;13.97;6.60;;;;;;;7.96;48.04;99509.91;4994100;28;20034;-75
2021/01/23 09:07:26;;;;;;;14.17;6.47;;;;;;;8.00;48.30;99515.50;5009253;28;20053;-76
2021/01/23 09:09:53;;;;;;;7.80;3.60;;;;;;;8.08;47.76;99520.09;4994071;28;20034;-86
2021/01/23 09:12:19;;;;;;;17.77;7.80;;;;;;;8.27;46.83;99517.00;4992727;28;20121;-77
2021/01/23 09:14:44;;;;;;;10.67;5.00;;;;;;;8.18;47.44;99519.75;5005667;28;20087;-76
2021/01/23 09:17:10;;;;;;;10.37;6.50;;;;;;;8.25;47.10;99520.06;4972931;28;20050;-76
2021/01/23 09:19:35;;;;;;;12.77;9.37;;;;;;;8.37;46.69;99521.28;4980792;28;20031;-76
2021/01/23 09:22:01;;;;;;;11.13;5.27;;;;;;;8.29;46.96;99514.75;5007955;28;20050;-77
2021/01/23 09:24:26;;;;;;;28.10;20.50;;;;;;;8.04;47.46;99517.25;5019909;28;20737;-77
2021/01/23 09:26:52;;;;;;;7.87;4.43;;;;;;;8.35;46.79;99516.19;5018046;28;20026;-75
2021/01/23 09:29:17;;;;;;;176.70;93.50;;;;;;;8.28;47.28;99513.94;5013557;28;20032;-76
2021/01/23 09:31:44;;;;;;;17.77;8.47;;;;;;;8.33;47.17;99511.03;5013222;28;20050;-75
2021/01/23 09:34:11;;;;;;;9.23;3.63;;;;;;;8.27;47.33;99506.91;4983939;28;20032;-76
2021/01/23 09:36:37;;;;;;;8.40;3.40;;;;;;;8.35;47.34;99513.47;4978965;28;20045;-77
2021/01/23 09:39:03;;;;;;;9.27;4.03;;;;;;;8.49;46.70;99516.75;4979423;28;20040;-80
2021/01/23 09:41:28;;;;;;;8.60;3.20;;;;;;;8.54;46.55;99523.94;4997248;28;20029;-76
2021/01/23 09:43:55;;;;;;;14.20;7.97;;;;;;;8.80;46.03;99521.06;4998436;28;20806;-77
2021/01/23 09:46:20;;;;;;;12.57;6.03;;;;;;;8.82;45.82;99526.97;4994048;28;20104;-76
2021/01/23 09:48:46;;;;;;;13.13;6.83;;;;;;;8.86;45.56;99533.38;5002080;28;20112;-77
2021/01/23 09:51:12;;;;;;;22.07;4.57;;;;;;;8.88;45.90;99542.78;5020741;28;20029;-78
2021/01/23 09:53:37;;;;;;;13.50;4.83;;;;;;;9.02;45.58;99542.56;5020274;28;20037;-76
2021/01/23 09:56:03;;;;;;;11.17;3.57;;;;;;;8.90;45.81;99550.63;5012258;28;20036;-75
2021/01/23 09:58:29;;;;;;;9.83;4.10;;;;;;;8.93;45.86;99547.25;5021695;28;20507;-77
2021/01/23 10:00:54;;;;;;;6.10;2.80;;;;;;;9.16;45.55;99534.13;4999730;28;20030;-83
2021/01/23 10:03:20;;;;;;;8.90;2.87;;;;;;;9.08;45.84;99540.44;5019402;28;20026;-78
2021/01/23 10:05:46;;;;;;;9.33;2.80;;;;;;;9.13;45.83;99545.66;5018477;28;20552;-77
2021/01/23 10:08:12;;;;;;;8.33;2.73;;;;;;;9.26;45.05;99549.25;5022884;28;20025;-77
2021/01/23 10:10:38;;;;;;;9.50;2.93;;;;;;;8.96;45.76;99549.31;5017336;28;20022;-79
2021/01/23 10:13:03;;;;;;;7.00;3.40;;;;;;;9.31;45.08;99563.50;5019736;28;20602;-78
2021/01/23 10:15:32;;;;;;;6.77;2.80;;;;;;;9.20;45.77;99559.56;5002986;28;20029;-76
2021/01/23 10:17:59;;;;;;;8.63;3.10;;;;;;;9.37;45.24;99569.53;5002645;28;20040;-80
2021/01/23 10:20:25;;;;;;;7.13;2.47;;;;;;;9.38;45.02;99561.03;5001232;28;20025;-78
2021/01/23 10:22:51;;;;;;;8.13;2.97;;;;;;;8.97;46.18;99571.91;5002322;28;20029;-77
2021/01/23 10:25:17;;;;;;;5.77;2.67;;;;;;;9.43;45.24;99571.72;5001393;28;20029;-79
2021/01/23 10:27:43;;;;;;;9.80;3.10;;;;;;;9.26;45.70;99574.59;5000409;28;20030;-79
2021/01/23 10:30:09;;;;;;;5.00;2.50;;;;;;;9.39;45.42;99573.53;5019503;28;20040;-83
2021/01/23 10:32:35;;;;;;;15.57;3.50;;;;;;;9.43;45.54;99581.84;5022184;28;20026;-78
2021/01/23 10:35:00;;;;;;;5.40;2.40;;;;;;;9.67;45.09;99583.88;5014038;28;20041;-81
2021/01/23 10:37:26;;;;;;;12.40;4.37;;;;;;;9.55;45.28;99579.19;4999910;28;20034;-85
2021/01/23 10:39:52;;;;;;;8.93;2.83;;;;;;;9.86;44.81;99581.47;4998832;28;20034;-86
2021/01/23 10:42:18;;;;;;;8.17;2.13;;;;;;;9.87;44.74;99574.06;4974525;28;20049;-84
2021/01/23 10:44:43;;;;;;;9.43;3.33;;;;;;;9.68;45.08;99577.31;5023550;28;20067;-86
2021/01/23 10:47:09;;;;;;;4.20;1.77;;;;;;;9.67;45.17;99572.97;5001206;28;20030;-78
2021/01/23 10:49:36;;;;;;;5.57;2.00;;;;;;;9.78;44.76;99576.88;5013070;28;20052;-85
2021/01/23 10:52:01;;;;;;;4.17;1.87;;;;;;;9.94;44.46;99583.28;5021255;28;20064;-82
2021/01/23 10:54:27;;;;;;;7.77;2.33;;;;;;;9.95;44.30;99581.38;5006880;28;20065;-80
2021/01/23 10:56:54;;;;;;;8.53;2.13;;;;;;;9.89;44.61;99577.25;5011155;28;20029;-81
2021/01/23 10:59:19;;;;;;;4.20;1.50;;;;;;;9.92;44.40;99579.31;5009595;28;20086;-86
2021/01/23 11:01:45;;;;;;;4.13;1.43;;;;;;;9.84;44.01;99586.47;5013627;28;20484;-80
2021/01/23 11:04:11;;;;;;;5.40;2.33;;;;;;;9.76;44.97;99586.53;5005164;28;20040;-82
2021/01/23 11:06:36;;;;;;;8.67;3.40;;;;;;;10.06;44.22;99590.72;5007839;28;20048;-81
2021/01/23 11:09:03;;;;;;;4.43;2.23;;;;;;;9.96;44.32;99599.31;5003987;28;20026;-89
2021/01/23 11:11:31;;;;;;;8.77;2.33;;;;;;;10.22;43.76;99610.00;5008969;28;20464;-79
2021/01/23 11:13:57;;;;;;;8.47;2.83;;;;;;;9.97;44.15;99603.66;5006458;28;20072;-79
2021/01/23 11:16:23;;;;;;;8.90;2.63;;;;;;;10.35;43.60;99608.91;4999431;28;20061;-81
2021/01/23 11:18:48;;;;;;;7.77;2.37;;;;;;;10.31;43.42;99612.66;5021145;28;20041;-81
2021/01/23 11:21:14;;;;;;;6.10;2.97;;;;;;;10.40;43.33;99613.34;4994186;28;20171;-84
2021/01/23 11:23:40;;;;;;;8.10;1.90;;;;;;;10.44;43.52;99615.06;4980463;28;20068;-86
2021/01/23 11:26:06;;;;;;;18.93;3.20;;;;;;;10.52;43.30;99610.66;4984833;28;20053;-81
2021/01/23 11:28:31;;;;;;;6.90;5.03;;;;;;;10.19;44.60;99616.09;5002915;28;20473;-80
2021/01/23 11:30:59;;;;;;;5.95;2.67;;;;;;;10.52;43.53;99619.63;4983613;28;20049;-81
2021/01/23 11:33:25;;;;;;;5.77;2.17;;;;;;;10.49;43.34;99612.09;4992678;28;20033;-79
2021/01/23 11:35:50;;;;;;;6.60;4.13;;;;;;;10.68;42.81;99610.78;4996073;28;20045;-81
2021/01/23 11:38:16;;;;;;;6.33;2.07;;;;;;;10.53;43.20;99604.84;4975912;28;20029;-81
2021/01/23 11:40:42;;;;;;;10.17;2.23;;;;;;;10.75;42.50;99595.41;4986205;28;20037;-80